sensor_id;sensor_type;location;lat;lon;timestamp;P1;durP1;ratioP1;P2;durP2;ratioP2
11111;SDS011;5609;49.466;8.468;2023-12-20T00:02:03;8.30;;;5.97;;
11111;SDS011;5609;49.466;8.468;2023-12-20T00:04:31;12.60;;;6.73;;
11111;SDS011;5609;49.466;8.468;2023-12-20T00:06:58;13.37;;;6.40;;
11111;SDS011;5609;49.466;8.468;2023-12-20T00:09:26;11.77;;;6.60;;
11111;SDS011;5609;49.466;8.468;2023-12-20T00:11:53;13.50;;;6.13;;
11111;SDS011;5609;49.466;8.468;2023-12-20T00:14:20;10.20;;;6.40;;
11111;SDS011;5609;49.466;8.468;2023-12-20T00:16:47;13.13;;;7.30;;
11111;SDS011;5609;49.466;8.468;2023-12-20T00:19:14;10.63;;;5.43;;
11111;SDS011;5609;49.466;8.468;2023-12-20T00:21:42;7.63;;;4.80;;
11111;SDS011;5609;49.466;8.468;2023-12-20T00:24:09;7.87;;;5.13;;
11111;SDS011;5609;49.466;8.468;2023-12-20T00:26:36;11.50;;;6.00;;
11111;SDS011;5609;49.466;8.468;2023-12-20T00:29:03;8.97;;;5.20;;
11111;SDS011;5609;49.466;8.468;2023-12-20T00:31:30;7.10;;;4.60;;
11111;SDS011;5609;49.466;8.468;2023-12-20T00:33:57;7.07;;;4.83;;
11111;SDS011;5609;49.466;8.468;2023-12-20T00:36:24;7.43;;;5.37;;
11111;SDS011;5609;49.466;8.468;2023-12-20T00:38:52;8.83;;;5.37;;
11111;SDS011;5609;49.466;8.468;2023-12-20T00:41:19;5.80;;;4.57;;
11111;SDS011;5609;49.466;8.468;2023-12-20T00:43:46;7.63;;;4.47;;
11111;SDS011;5609;49.466;8.468;2023-12-20T00:46:14;6.23;;;4.37;;
11111;SDS011;5609;49.466;8.468;2023-12-20T00:48:41;8.47;;;4.57;;
11111;SDS011;5609;49.466;8.468;2023-12-20T00:51:10;7.70;;;4.83;;
11111;SDS011;5609;49.466;8.468;2023-12-20T00:53:37;6.87;;;4.50;;
11111;SDS011;5609;49.466;8.468;2023-12-20T00:56:05;5.20;;;4.40;;
11111;SDS011;5609;49.466;8.468;2023-12-20T00:58:33;7.27;;;4.87;;
11111;SDS011;5609;49.466;8.468;2023-12-20T01:01:00;5.60;;;4.20;;
11111;SDS011;5609;49.466;8.468;2023-12-20T01:03:27;9.77;;;5.17;;
11111;SDS011;5609;49.466;8.468;2023-12-20T01:05:54;8.33;;;5.13;;
11111;SDS011;5609;49.466;8.468;2023-12-20T01:08:21;7.33;;;4.50;;
11111;SDS011;5609;49.466;8.468;2023-12-20T01:10:48;7.90;;;5.40;;
11111;SDS011;5609;49.466;8.468;2023-12-20T01:13:16;11.07;;;5.50;;
11111;SDS011;5609;49.466;8.468;2023-12-20T01:15:43;7.00;;;4.80;;
11111;SDS011;5609;49.466;8.468;2023-12-20T01:18:10;7.33;;;4.67;;
11111;SDS011;5609;49.466;8.468;2023-12-20T01:20:37;8.00;;;4.50;;
11111;SDS011;5609;49.466;8.468;2023-12-20T01:23:04;7.17;;;4.63;;
11111;SDS011;5609;49.466;8.468;2023-12-20T01:25:31;6.50;;;4.57;;
11111;SDS011;5609;49.466;8.468;2023-12-20T01:27:58;4.67;;;3.43;;
11111;SDS011;5609;49.466;8.468;2023-12-20T01:30:26;6.00;;;4.40;;
11111;SDS011;5609;49.466;8.468;2023-12-20T01:32:53;6.13;;;4.67;;
11111;SDS011;5609;49.466;8.468;2023-12-20T01:35:20;6.80;;;4.50;;
11111;SDS011;5609;49.466;8.468;2023-12-20T01:37:47;9.77;;;5.00;;
11111;SDS011;5609;49.466;8.468;2023-12-20T01:40:14;5.27;;;3.50;;
11111;SDS011;5609;49.466;8.468;2023-12-20T01:42:41;5.00;;;3.53;;
11111;SDS011;5609;49.466;8.468;2023-12-20T01:45:08;8.47;;;4.77;;
11111;SDS011;5609;49.466;8.468;2023-12-20T01:47:37;6.70;;;3.77;;
11111;SDS011;5609;49.466;8.468;2023-12-20T01:50:04;6.23;;;4.03;;
11111;SDS011;5609;49.466;8.468;2023-12-20T01:52:33;8.63;;;4.70;;
11111;SDS011;5609;49.466;8.468;2023-12-20T01:55:01;7.90;;;4.10;;
11111;SDS011;5609;49.466;8.468;2023-12-20T01:57:31;7.47;;;4.43;;
11111;SDS011;5609;49.466;8.468;2023-12-20T01:59:58;4.23;;;2.80;;
11111;SDS011;5609;49.466;8.468;2023-12-20T02:02:25;8.03;;;4.67;;
11111;SDS011;5609;49.466;8.468;2023-12-20T02:04:55;6.73;;;4.40;;
11111;SDS011;5609;49.466;8.468;2023-12-20T02:07:22;5.53;;;3.63;;
11111;SDS011;5609;49.466;8.468;2023-12-20T02:09:49;5.03;;;3.87;;
11111;SDS011;5609;49.466;8.468;2023-12-20T02:12:16;8.63;;;5.13;;
11111;SDS011;5609;49.466;8.468;2023-12-20T02:14:43;6.17;;;4.40;;
11111;SDS011;5609;49.466;8.468;2023-12-20T02:17:10;5.03;;;4.23;;
11111;SDS011;5609;49.466;8.468;2023-12-20T02:19:37;7.03;;;5.70;;
11111;SDS011;5609;49.466;8.468;2023-12-20T02:22:06;4.70;;;3.90;;
11111;SDS011;5609;49.466;8.468;2023-12-20T02:24:33;6.47;;;4.10;;
11111;SDS011;5609;49.466;8.468;2023-12-20T02:27:00;9.37;;;5.80;;
11111;SDS011;5609;49.466;8.468;2023-12-20T02:29:28;7.07;;;4.33;;
11111;SDS011;5609;49.466;8.468;2023-12-20T02:31:55;4.63;;;3.43;;
11111;SDS011;5609;49.466;8.468;2023-12-20T02:34:22;6.37;;;4.47;;
11111;SDS011;5609;49.466;8.468;2023-12-20T02:36:49;3.83;;;2.80;;
11111;SDS011;5609;49.466;8.468;2023-12-20T02:39:17;6.60;;;4.97;;
11111;SDS011;5609;49.466;8.468;2023-12-20T02:41:44;11.20;;;5.60;;
11111;SDS011;5609;49.466;8.468;2023-12-20T02:44:11;7.67;;;4.80;;
11111;SDS011;5609;49.466;8.468;2023-12-20T02:46:38;10.50;;;6.23;;
11111;SDS011;5609;49.466;8.468;2023-12-20T02:49:05;7.23;;;4.23;;
11111;SDS011;5609;49.466;8.468;2023-12-20T02:51:32;8.63;;;5.37;;
11111;SDS011;5609;49.466;8.468;2023-12-20T02:53:59;4.57;;;3.10;;
11111;SDS011;5609;49.466;8.468;2023-12-20T02:56:27;12.27;;;6.33;;
11111;SDS011;5609;49.466;8.468;2023-12-20T02:58:54;8.33;;;5.93;;
11111;SDS011;5609;49.466;8.468;2023-12-20T03:01:21;10.97;;;6.53;;
11111;SDS011;5609;49.466;8.468;2023-12-20T03:03:49;13.43;;;7.50;;
11111;SDS011;5609;49.466;8.468;2023-12-20T03:06:17;13.43;;;7.57;;
11111;SDS011;5609;49.466;8.468;2023-12-20T03:08:45;11.93;;;7.47;;
11111;SDS011;5609;49.466;8.468;2023-12-20T03:11:12;8.27;;;6.30;;
11111;SDS011;5609;49.466;8.468;2023-12-20T03:13:40;9.77;;;6.47;;
11111;SDS011;5609;49.466;8.468;2023-12-20T03:16:10;12.13;;;6.53;;
11111;SDS011;5609;49.466;8.468;2023-12-20T03:18:37;10.03;;;6.50;;
11111;SDS011;5609;49.466;8.468;2023-12-20T03:21:04;12.80;;;8.70;;
11111;SDS011;5609;49.466;8.468;2023-12-20T03:23:32;9.30;;;6.70;;
11111;SDS011;5609;49.466;8.468;2023-12-20T03:25:59;8.13;;;6.73;;
11111;SDS011;5609;49.466;8.468;2023-12-20T03:28:26;13.67;;;8.40;;
11111;SDS011;5609;49.466;8.468;2023-12-20T03:30:54;11.30;;;7.73;;
11111;SDS011;5609;49.466;8.468;2023-12-20T03:33:21;13.23;;;7.43;;
11111;SDS011;5609;49.466;8.468;2023-12-20T03:35:48;12.77;;;9.30;;
11111;SDS011;5609;49.466;8.468;2023-12-20T03:38:15;13.43;;;7.93;;
11111;SDS011;5609;49.466;8.468;2023-12-20T03:40:42;10.70;;;8.33;;
11111;SDS011;5609;49.466;8.468;2023-12-20T03:43:09;12.20;;;9.20;;
11111;SDS011;5609;49.466;8.468;2023-12-20T03:45:36;10.73;;;8.20;;
11111;SDS011;5609;49.466;8.468;2023-12-20T03:48:05;15.63;;;10.90;;
11111;SDS011;5609;49.466;8.468;2023-12-20T03:50:32;20.40;;;9.33;;
11111;SDS011;5609;49.466;8.468;2023-12-20T03:52:59;11.70;;;8.40;;
11111;SDS011;5609;49.466;8.468;2023-12-20T03:55:26;11.33;;;7.60;;
11111;SDS011;5609;49.466;8.468;2023-12-20T03:57:53;14.13;;;8.93;;
11111;SDS011;5609;49.466;8.468;2023-12-20T04:00:20;14.20;;;9.07;;
11111;SDS011;5609;49.466;8.468;2023-12-20T04:02:47;14.40;;;9.60;;
11111;SDS011;5609;49.466;8.468;2023-12-20T04:05:15;10.07;;;7.63;;
11111;SDS011;5609;49.466;8.468;2023-12-20T04:07:42;14.57;;;9.47;;
11111;SDS011;5609;49.466;8.468;2023-12-20T04:10:09;11.67;;;9.23;;
11111;SDS011;5609;49.466;8.468;2023-12-20T04:12:36;11.37;;;8.80;;
11111;SDS011;5609;49.466;8.468;2023-12-20T04:15:03;12.80;;;8.10;;
11111;SDS011;5609;49.466;8.468;2023-12-20T04:17:34;14.20;;;10.43;;
11111;SDS011;5609;49.466;8.468;2023-12-20T04:20:01;15.20;;;10.43;;
11111;SDS011;5609;49.466;8.468;2023-12-20T04:22:29;15.70;;;10.77;;
11111;SDS011;5609;49.466;8.468;2023-12-20T04:24:56;16.30;;;10.50;;
11111;SDS011;5609;49.466;8.468;2023-12-20T04:27:23;10.27;;;6.83;;
11111;SDS011;5609;49.466;8.468;2023-12-20T04:29:50;11.93;;;8.83;;
11111;SDS011;5609;49.466;8.468;2023-12-20T04:32:17;13.33;;;9.10;;
11111;SDS011;5609;49.466;8.468;2023-12-20T04:34:44;10.77;;;8.73;;
11111;SDS011;5609;49.466;8.468;2023-12-20T04:37:11;8.37;;;6.07;;
11111;SDS011;5609;49.466;8.468;2023-12-20T04:39:39;13.83;;;8.03;;
11111;SDS011;5609;49.466;8.468;2023-12-20T04:42:06;11.03;;;8.27;;
11111;SDS011;5609;49.466;8.468;2023-12-20T04:44:33;13.40;;;9.67;;
11111;SDS011;5609;49.466;8.468;2023-12-20T04:47:00;12.57;;;8.67;;
11111;SDS011;5609;49.466;8.468;2023-12-20T04:49:28;12.23;;;8.13;;
11111;SDS011;5609;49.466;8.468;2023-12-20T04:51:55;8.63;;;6.10;;
11111;SDS011;5609;49.466;8.468;2023-12-20T04:54:22;13.07;;;9.20;;
11111;SDS011;5609;49.466;8.468;2023-12-20T04:56:50;12.53;;;8.07;;
11111;SDS011;5609;49.466;8.468;2023-12-20T04:59:17;13.73;;;8.17;;
11111;SDS011;5609;49.466;8.468;2023-12-20T05:01:44;11.57;;;8.90;;
11111;SDS011;5609;49.466;8.468;2023-12-20T05:04:11;12.53;;;8.97;;
11111;SDS011;5609;49.466;8.468;2023-12-20T05:06:38;10.03;;;8.00;;
11111;SDS011;5609;49.466;8.468;2023-12-20T05:09:05;11.37;;;9.10;;
11111;SDS011;5609;49.466;8.468;2023-12-20T05:11:33;9.70;;;7.40;;
11111;SDS011;5609;49.466;8.468;2023-12-20T05:14:01;13.50;;;9.50;;
11111;SDS011;5609;49.466;8.468;2023-12-20T05:16:28;9.30;;;7.53;;
11111;SDS011;5609;49.466;8.468;2023-12-20T05:18:55;9.63;;;6.90;;
11111;SDS011;5609;49.466;8.468;2023-12-20T05:21:23;9.37;;;6.30;;
11111;SDS011;5609;49.466;8.468;2023-12-20T05:23:50;11.30;;;7.60;;
11111;SDS011;5609;49.466;8.468;2023-12-20T05:26:17;10.77;;;8.23;;
11111;SDS011;5609;49.466;8.468;2023-12-20T05:28:44;9.60;;;8.07;;
11111;SDS011;5609;49.466;8.468;2023-12-20T05:31:12;11.53;;;8.53;;
11111;SDS011;5609;49.466;8.468;2023-12-20T05:33:39;5.20;;;4.53;;
11111;SDS011;5609;49.466;8.468;2023-12-20T05:36:06;10.87;;;6.97;;
11111;SDS011;5609;49.466;8.468;2023-12-20T05:38:37;8.83;;;6.83;;
11111;SDS011;5609;49.466;8.468;2023-12-20T05:41:04;9.97;;;6.87;;
11111;SDS011;5609;49.466;8.468;2023-12-20T05:43:31;4.10;;;3.50;;
11111;SDS011;5609;49.466;8.468;2023-12-20T05:45:58;13.63;;;7.67;;
11111;SDS011;5609;49.466;8.468;2023-12-20T05:48:27;8.93;;;5.93;;
11111;SDS011;5609;49.466;8.468;2023-12-20T05:50:54;10.80;;;7.20;;
11111;SDS011;5609;49.466;8.468;2023-12-20T05:53:20;9.47;;;5.67;;
11111;SDS011;5609;49.466;8.468;2023-12-20T05:55:47;9.10;;;5.40;;
11111;SDS011;5609;49.466;8.468;2023-12-20T05:58:15;11.10;;;7.37;;
11111;SDS011;5609;49.466;8.468;2023-12-20T06:00:42;10.00;;;7.20;;
11111;SDS011;5609;49.466;8.468;2023-12-20T06:03:08;11.73;;;7.93;;
11111;SDS011;5609;49.466;8.468;2023-12-20T06:05:37;12.30;;;7.97;;
11111;SDS011;5609;49.466;8.468;2023-12-20T06:08:04;11.97;;;8.40;;
11111;SDS011;5609;49.466;8.468;2023-12-20T06:10:31;6.00;;;4.70;;
11111;SDS011;5609;49.466;8.468;2023-12-20T06:12:58;10.07;;;7.10;;
11111;SDS011;5609;49.466;8.468;2023-12-20T06:15:25;12.17;;;8.17;;
11111;SDS011;5609;49.466;8.468;2023-12-20T06:17:52;9.93;;;6.60;;
11111;SDS011;5609;49.466;8.468;2023-12-20T06:20:19;13.60;;;7.57;;
11111;SDS011;5609;49.466;8.468;2023-12-20T06:22:48;10.77;;;7.57;;
11111;SDS011;5609;49.466;8.468;2023-12-20T06:25:15;13.70;;;7.80;;
11111;SDS011;5609;49.466;8.468;2023-12-20T06:27:42;9.90;;;6.07;;
11111;SDS011;5609;49.466;8.468;2023-12-20T06:30:09;8.87;;;5.20;;
11111;SDS011;5609;49.466;8.468;2023-12-20T06:32:36;9.73;;;7.60;;
11111;SDS011;5609;49.466;8.468;2023-12-20T06:35:04;13.37;;;7.43;;
11111;SDS011;5609;49.466;8.468;2023-12-20T06:37:31;8.80;;;5.63;;
11111;SDS011;5609;49.466;8.468;2023-12-20T06:40:00;10.43;;;6.80;;
11111;SDS011;5609;49.466;8.468;2023-12-20T06:42:27;11.40;;;6.30;;
11111;SDS011;5609;49.466;8.468;2023-12-20T06:44:54;8.90;;;5.67;;
11111;SDS011;5609;49.466;8.468;2023-12-20T06:47:21;11.63;;;7.77;;
11111;SDS011;5609;49.466;8.468;2023-12-20T06:49:48;10.97;;;6.77;;
11111;SDS011;5609;49.466;8.468;2023-12-20T06:52:15;7.43;;;4.83;;
11111;SDS011;5609;49.466;8.468;2023-12-20T06:54:42;8.27;;;6.20;;
11111;SDS011;5609;49.466;8.468;2023-12-20T06:57:10;12.07;;;6.90;;
11111;SDS011;5609;49.466;8.468;2023-12-20T06:59:38;15.83;;;8.13;;
11111;SDS011;5609;49.466;8.468;2023-12-20T07:02:05;9.23;;;5.83;;
11111;SDS011;5609;49.466;8.468;2023-12-20T07:04:32;12.83;;;7.43;;
11111;SDS011;5609;49.466;8.468;2023-12-20T07:06:59;11.27;;;6.63;;
11111;SDS011;5609;49.466;8.468;2023-12-20T07:09:26;11.83;;;8.10;;
11111;SDS011;5609;49.466;8.468;2023-12-20T07:11:53;10.00;;;6.40;;
11111;SDS011;5609;49.466;8.468;2023-12-20T07:14:22;13.63;;;6.67;;
11111;SDS011;5609;49.466;8.468;2023-12-20T07:16:49;10.97;;;7.97;;
11111;SDS011;5609;49.466;8.468;2023-12-20T07:19:15;18.37;;;9.50;;
11111;SDS011;5609;49.466;8.468;2023-12-20T07:21:42;19.13;;;10.50;;
11111;SDS011;5609;49.466;8.468;2023-12-20T07:24:09;14.73;;;7.13;;
11111;SDS011;5609;49.466;8.468;2023-12-20T07:26:36;14.43;;;9.23;;
11111;SDS011;5609;49.466;8.468;2023-12-20T07:29:04;15.90;;;8.70;;
11111;SDS011;5609;49.466;8.468;2023-12-20T07:31:33;19.67;;;8.80;;
11111;SDS011;5609;49.466;8.468;2023-12-20T07:34:00;10.13;;;5.50;;
11111;SDS011;5609;49.466;8.468;2023-12-20T07:36:27;16.83;;;7.53;;
11111;SDS011;5609;49.466;8.468;2023-12-20T07:38:54;4.57;;;3.20;;
11111;SDS011;5609;49.466;8.468;2023-12-20T07:41:21;2.83;;;2.30;;
11111;SDS011;5609;49.466;8.468;2023-12-20T07:43:48;3.20;;;1.83;;
11111;SDS011;5609;49.466;8.468;2023-12-20T07:46:16;3.03;;;1.70;;
11111;SDS011;5609;49.466;8.468;2023-12-20T07:48:45;2.53;;;1.90;;
11111;SDS011;5609;49.466;8.468;2023-12-20T07:51:12;2.90;;;1.80;;
11111;SDS011;5609;49.466;8.468;2023-12-20T07:53:39;4.17;;;2.20;;
11111;SDS011;5609;49.466;8.468;2023-12-20T07:56:13;3.97;;;2.00;;
11111;SDS011;5609;49.466;8.468;2023-12-20T07:58:40;3.00;;;2.10;;
11111;SDS011;5609;49.466;8.468;2023-12-20T08:01:07;3.20;;;2.20;;
11111;SDS011;5609;49.466;8.468;2023-12-20T08:03:34;3.50;;;2.20;;
11111;SDS011;5609;49.466;8.468;2023-12-20T08:06:03;3.40;;;2.10;;
11111;SDS011;5609;49.466;8.468;2023-12-20T08:08:30;3.63;;;2.07;;
11111;SDS011;5609;49.466;8.468;2023-12-20T08:10:57;3.40;;;2.30;;
11111;SDS011;5609;49.466;8.468;2023-12-20T08:13:25;2.70;;;2.00;;
11111;SDS011;5609;49.466;8.468;2023-12-20T08:15:52;5.50;;;2.10;;
11111;SDS011;5609;49.466;8.468;2023-12-20T08:18:20;3.43;;;2.10;;
11111;SDS011;5609;49.466;8.468;2023-12-20T08:20:48;3.13;;;2.23;;
11111;SDS011;5609;49.466;8.468;2023-12-20T08:23:19;3.20;;;2.10;;
11111;SDS011;5609;49.466;8.468;2023-12-20T08:25:46;3.93;;;2.50;;
11111;SDS011;5609;49.466;8.468;2023-12-20T08:28:14;3.73;;;2.60;;
11111;SDS011;5609;49.466;8.468;2023-12-20T08:30:41;4.27;;;2.90;;
11111;SDS011;5609;49.466;8.468;2023-12-20T08:33:08;5.20;;;3.40;;
11111;SDS011;5609;49.466;8.468;2023-12-20T08:35:37;4.07;;;3.10;;
11111;SDS011;5609;49.466;8.468;2023-12-20T08:38:04;4.50;;;3.20;;
11111;SDS011;5609;49.466;8.468;2023-12-20T08:40:32;4.60;;;2.57;;
11111;SDS011;5609;49.466;8.468;2023-12-20T08:42:59;5.37;;;2.87;;
11111;SDS011;5609;49.466;8.468;2023-12-20T08:45:25;4.70;;;2.37;;
11111;SDS011;5609;49.466;8.468;2023-12-20T08:47:52;4.37;;;2.10;;
11111;SDS011;5609;49.466;8.468;2023-12-20T08:50:19;5.10;;;2.13;;
11111;SDS011;5609;49.466;8.468;2023-12-20T08:52:45;5.47;;;2.47;;
11111;SDS011;5609;49.466;8.468;2023-12-20T08:55:12;5.50;;;2.47;;
11111;SDS011;5609;49.466;8.468;2023-12-20T08:57:41;3.87;;;1.90;;
11111;SDS011;5609;49.466;8.468;2023-12-20T09:00:08;4.67;;;2.20;;
11111;SDS011;5609;49.466;8.468;2023-12-20T09:02:35;6.40;;;2.17;;
11111;SDS011;5609;49.466;8.468;2023-12-20T09:05:02;6.70;;;2.50;;
11111;SDS011;5609;49.466;8.468;2023-12-20T09:07:29;4.97;;;2.40;;
11111;SDS011;5609;49.466;8.468;2023-12-20T09:09:57;4.93;;;2.50;;
11111;SDS011;5609;49.466;8.468;2023-12-20T09:12:24;5.13;;;2.53;;
11111;SDS011;5609;49.466;8.468;2023-12-20T09:14:52;4.73;;;2.27;;
11111;SDS011;5609;49.466;8.468;2023-12-20T09:17:19;5.07;;;2.10;;
11111;SDS011;5609;49.466;8.468;2023-12-20T09:19:47;4.30;;;2.40;;
11111;SDS011;5609;49.466;8.468;2023-12-20T09:22:14;7.27;;;2.67;;
11111;SDS011;5609;49.466;8.468;2023-12-20T09:24:41;4.33;;;2.50;;
11111;SDS011;5609;49.466;8.468;2023-12-20T09:27:08;7.13;;;2.63;;
11111;SDS011;5609;49.466;8.468;2023-12-20T09:29:34;4.53;;;2.30;;
11111;SDS011;5609;49.466;8.468;2023-12-20T09:32:02;5.00;;;2.50;;
11111;SDS011;5609;49.466;8.468;2023-12-20T09:34:29;5.93;;;2.27;;
11111;SDS011;5609;49.466;8.468;2023-12-20T09:36:56;4.63;;;2.20;;
11111;SDS011;5609;49.466;8.468;2023-12-20T09:39:22;6.33;;;2.40;;
11111;SDS011;5609;49.466;8.468;2023-12-20T09:41:51;5.20;;;2.20;;
11111;SDS011;5609;49.466;8.468;2023-12-20T09:44:25;6.40;;;2.43;;
11111;SDS011;5609;49.466;8.468;2023-12-20T09:46:52;5.97;;;2.10;;
11111;SDS011;5609;49.466;8.468;2023-12-20T09:49:21;6.00;;;2.10;;
11111;SDS011;5609;49.466;8.468;2023-12-20T09:51:49;5.80;;;2.43;;
11111;SDS011;5609;49.466;8.468;2023-12-20T09:54:17;4.47;;;2.40;;
11111;SDS011;5609;49.466;8.468;2023-12-20T09:56:44;4.80;;;2.53;;
11111;SDS011;5609;49.466;8.468;2023-12-20T09:59:11;6.07;;;2.13;;
11111;SDS011;5609;49.466;8.468;2023-12-20T10:01:37;7.10;;;2.30;;
11111;SDS011;5609;49.466;8.468;2023-12-20T10:04:06;4.03;;;2.10;;
11111;SDS011;5609;49.466;8.468;2023-12-20T10:06:35;7.03;;;2.13;;
11111;SDS011;5609;49.466;8.468;2023-12-20T10:09:02;4.87;;;2.20;;
11111;SDS011;5609;49.466;8.468;2023-12-20T10:11:30;7.87;;;2.30;;
11111;SDS011;5609;49.466;8.468;2023-12-20T10:13:59;6.10;;;2.20;;
11111;SDS011;5609;49.466;8.468;2023-12-20T10:16:26;3.60;;;1.93;;
11111;SDS011;5609;49.466;8.468;2023-12-20T10:18:53;5.03;;;2.00;;
11111;SDS011;5609;49.466;8.468;2023-12-20T10:21:20;6.60;;;2.37;;
11111;SDS011;5609;49.466;8.468;2023-12-20T10:23:49;4.37;;;2.17;;
11111;SDS011;5609;49.466;8.468;2023-12-20T10:26:19;4.77;;;2.10;;
11111;SDS011;5609;49.466;8.468;2023-12-20T10:28:46;5.17;;;2.30;;
11111;SDS011;5609;49.466;8.468;2023-12-20T10:31:21;6.57;;;2.37;;
11111;SDS011;5609;49.466;8.468;2023-12-20T10:33:52;3.83;;;2.40;;
11111;SDS011;5609;49.466;8.468;2023-12-20T10:36:18;6.93;;;2.33;;
11111;SDS011;5609;49.466;8.468;2023-12-20T10:38:46;5.13;;;2.10;;
11111;SDS011;5609;49.466;8.468;2023-12-20T10:41:18;3.83;;;1.93;;
11111;SDS011;5609;49.466;8.468;2023-12-20T10:43:50;7.60;;;2.10;;
11111;SDS011;5609;49.466;8.468;2023-12-20T10:46:17;3.47;;;1.80;;
11111;SDS011;5609;49.466;8.468;2023-12-20T10:48:45;7.33;;;2.03;;
11111;SDS011;5609;49.466;8.468;2023-12-20T10:51:13;5.47;;;1.80;;
11111;SDS011;5609;49.466;8.468;2023-12-20T10:53:43;3.60;;;1.73;;
11111;SDS011;5609;49.466;8.468;2023-12-20T10:56:12;5.17;;;1.90;;
11111;SDS011;5609;49.466;8.468;2023-12-20T10:58:42;5.33;;;2.13;;
11111;SDS011;5609;49.466;8.468;2023-12-20T11:01:10;4.67;;;2.03;;
11111;SDS011;5609;49.466;8.468;2023-12-20T11:03:39;6.03;;;2.00;;
11111;SDS011;5609;49.466;8.468;2023-12-20T11:06:11;4.23;;;2.17;;
11111;SDS011;5609;49.466;8.468;2023-12-20T11:08:46;7.60;;;2.40;;
11111;SDS011;5609;49.466;8.468;2023-12-20T11:11:20;4.13;;;1.80;;
11111;SDS011;5609;49.466;8.468;2023-12-20T11:13:55;7.50;;;2.10;;
11111;SDS011;5609;49.466;8.468;2023-12-20T11:16:26;6.03;;;2.27;;
11111;SDS011;5609;49.466;8.468;2023-12-20T11:18:52;5.87;;;2.40;;
11111;SDS011;5609;49.466;8.468;2023-12-20T11:21:19;5.20;;;1.97;;
11111;SDS011;5609;49.466;8.468;2023-12-20T11:23:47;4.53;;;1.97;;
11111;SDS011;5609;49.466;8.468;2023-12-20T11:26:15;6.30;;;2.03;;
11111;SDS011;5609;49.466;8.468;2023-12-20T11:28:43;4.13;;;2.00;;
11111;SDS011;5609;49.466;8.468;2023-12-20T11:31:10;4.00;;;1.80;;
11111;SDS011;5609;49.466;8.468;2023-12-20T11:33:40;5.17;;;2.00;;
11111;SDS011;5609;49.466;8.468;2023-12-20T11:36:12;3.93;;;2.03;;
11111;SDS011;5609;49.466;8.468;2023-12-20T11:38:42;6.03;;;2.30;;
11111;SDS011;5609;49.466;8.468;2023-12-20T11:41:19;5.40;;;1.80;;
11111;SDS011;5609;49.466;8.468;2023-12-20T11:43:51;4.03;;;2.10;;
11111;SDS011;5609;49.466;8.468;2023-12-20T11:46:19;4.57;;;2.03;;
11111;SDS011;5609;49.466;8.468;2023-12-20T11:48:46;4.17;;;2.13;;
11111;SDS011;5609;49.466;8.468;2023-12-20T11:51:13;7.13;;;2.53;;
11111;SDS011;5609;49.466;8.468;2023-12-20T11:53:40;4.77;;;2.00;;
11111;SDS011;5609;49.466;8.468;2023-12-20T11:56:08;5.03;;;2.00;;
11111;SDS011;5609;49.466;8.468;2023-12-20T11:58:35;6.37;;;2.40;;
11111;SDS011;5609;49.466;8.468;2023-12-20T12:01:04;5.63;;;2.30;;
11111;SDS011;5609;49.466;8.468;2023-12-20T12:03:32;4.33;;;2.00;;
11111;SDS011;5609;49.466;8.468;2023-12-20T12:05:59;6.00;;;2.40;;
11111;SDS011;5609;49.466;8.468;2023-12-20T12:08:26;4.03;;;1.93;;
11111;SDS011;5609;49.466;8.468;2023-12-20T12:10:52;7.47;;;2.50;;
11111;SDS011;5609;49.466;8.468;2023-12-20T12:13:19;7.13;;;3.10;;
11111;SDS011;5609;49.466;8.468;2023-12-20T12:15:46;5.87;;;2.60;;
11111;SDS011;5609;49.466;8.468;2023-12-20T12:18:16;3.93;;;2.00;;
11111;SDS011;5609;49.466;8.468;2023-12-20T12:20:43;4.63;;;2.47;;
11111;SDS011;5609;49.466;8.468;2023-12-20T12:23:10;4.80;;;2.60;;
11111;SDS011;5609;49.466;8.468;2023-12-20T12:25:37;4.83;;;2.70;;
11111;SDS011;5609;49.466;8.468;2023-12-20T12:28:04;5.47;;;2.43;;
11111;SDS011;5609;49.466;8.468;2023-12-20T12:30:32;7.43;;;2.57;;
11111;SDS011;5609;49.466;8.468;2023-12-20T12:32:58;6.53;;;2.27;;
11111;SDS011;5609;49.466;8.468;2023-12-20T12:35:26;4.50;;;2.30;;
11111;SDS011;5609;49.466;8.468;2023-12-20T12:37:53;5.33;;;2.67;;
11111;SDS011;5609;49.466;8.468;2023-12-20T12:40:20;5.70;;;2.50;;
11111;SDS011;5609;49.466;8.468;2023-12-20T12:42:46;6.07;;;2.40;;
11111;SDS011;5609;49.466;8.468;2023-12-20T12:45:13;5.60;;;2.20;;
11111;SDS011;5609;49.466;8.468;2023-12-20T12:47:40;6.17;;;2.63;;
11111;SDS011;5609;49.466;8.468;2023-12-20T12:50:08;6.37;;;2.47;;
11111;SDS011;5609;49.466;8.468;2023-12-20T12:52:36;6.60;;;2.60;;
11111;SDS011;5609;49.466;8.468;2023-12-20T12:55:03;8.07;;;2.60;;
11111;SDS011;5609;49.466;8.468;2023-12-20T12:57:31;7.40;;;2.73;;
11111;SDS011;5609;49.466;8.468;2023-12-20T12:59:58;6.63;;;2.50;;
11111;SDS011;5609;49.466;8.468;2023-12-20T13:02:25;7.43;;;2.90;;
11111;SDS011;5609;49.466;8.468;2023-12-20T13:04:52;6.63;;;2.60;;
11111;SDS011;5609;49.466;8.468;2023-12-20T13:07:18;8.07;;;2.77;;
11111;SDS011;5609;49.466;8.468;2023-12-20T13:09:47;5.83;;;2.47;;
11111;SDS011;5609;49.466;8.468;2023-12-20T13:12:13;8.33;;;2.80;;
11111;SDS011;5609;49.466;8.468;2023-12-20T13:14:40;5.87;;;2.33;;
11111;SDS011;5609;49.466;8.468;2023-12-20T13:17:07;6.37;;;2.40;;
11111;SDS011;5609;49.466;8.468;2023-12-20T13:19:34;5.90;;;2.40;;
11111;SDS011;5609;49.466;8.468;2023-12-20T13:22:00;10.70;;;2.80;;
11111;SDS011;5609;49.466;8.468;2023-12-20T13:24:27;7.43;;;2.77;;
11111;SDS011;5609;49.466;8.468;2023-12-20T13:26:55;6.50;;;2.40;;
11111;SDS011;5609;49.466;8.468;2023-12-20T13:29:23;6.60;;;2.60;;
11111;SDS011;5609;49.466;8.468;2023-12-20T13:31:52;6.00;;;2.27;;
11111;SDS011;5609;49.466;8.468;2023-12-20T13:34:19;4.20;;;2.30;;
11111;SDS011;5609;49.466;8.468;2023-12-20T13:36:46;6.33;;;2.40;;
11111;SDS011;5609;49.466;8.468;2023-12-20T13:39:15;5.57;;;2.13;;
11111;SDS011;5609;49.466;8.468;2023-12-20T13:41:43;6.17;;;2.03;;
11111;SDS011;5609;49.466;8.468;2023-12-20T13:44:11;5.23;;;2.37;;
11111;SDS011;5609;49.466;8.468;2023-12-20T13:46:38;5.40;;;2.20;;
11111;SDS011;5609;49.466;8.468;2023-12-20T13:49:05;6.33;;;2.20;;
11111;SDS011;5609;49.466;8.468;2023-12-20T13:51:32;6.43;;;2.10;;
11111;SDS011;5609;49.466;8.468;2023-12-20T13:53:59;6.17;;;1.93;;
11111;SDS011;5609;49.466;8.468;2023-12-20T13:56:26;3.67;;;1.80;;
11111;SDS011;5609;49.466;8.468;2023-12-20T13:58:53;5.73;;;1.90;;
11111;SDS011;5609;49.466;8.468;2023-12-20T14:01:21;4.40;;;1.97;;
11111;SDS011;5609;49.466;8.468;2023-12-20T14:03:48;3.40;;;1.80;;
11111;SDS011;5609;49.466;8.468;2023-12-20T14:06:15;3.83;;;2.10;;
11111;SDS011;5609;49.466;8.468;2023-12-20T14:08:43;4.13;;;2.00;;
11111;SDS011;5609;49.466;8.468;2023-12-20T14:11:09;8.63;;;2.13;;
11111;SDS011;5609;49.466;8.468;2023-12-20T14:13:37;4.77;;;2.00;;
11111;SDS011;5609;49.466;8.468;2023-12-20T14:16:04;3.20;;;1.73;;
11111;SDS011;5609;49.466;8.468;2023-12-20T14:18:32;3.77;;;1.90;;
11111;SDS011;5609;49.466;8.468;2023-12-20T14:20:59;4.20;;;1.97;;
11111;SDS011;5609;49.466;8.468;2023-12-20T14:23:26;4.50;;;2.00;;
11111;SDS011;5609;49.466;8.468;2023-12-20T14:25:52;5.07;;;2.13;;
11111;SDS011;5609;49.466;8.468;2023-12-20T14:28:21;4.70;;;2.00;;
11111;SDS011;5609;49.466;8.468;2023-12-20T14:30:47;5.93;;;2.67;;
11111;SDS011;5609;49.466;8.468;2023-12-20T14:33:15;3.97;;;2.00;;
11111;SDS011;5609;49.466;8.468;2023-12-20T14:35:43;4.80;;;2.03;;
11111;SDS011;5609;49.466;8.468;2023-12-20T14:38:10;5.20;;;2.00;;
11111;SDS011;5609;49.466;8.468;2023-12-20T14:40:39;4.17;;;2.00;;
11111;SDS011;5609;49.466;8.468;2023-12-20T14:43:05;4.33;;;2.07;;
11111;SDS011;5609;49.466;8.468;2023-12-20T14:45:32;3.63;;;1.83;;
11111;SDS011;5609;49.466;8.468;2023-12-20T14:47:59;5.20;;;2.20;;
11111;SDS011;5609;49.466;8.468;2023-12-20T14:50:25;5.23;;;2.30;;
11111;SDS011;5609;49.466;8.468;2023-12-20T14:52:53;3.07;;;1.83;;
11111;SDS011;5609;49.466;8.468;2023-12-20T14:55:21;6.80;;;2.27;;
11111;SDS011;5609;49.466;8.468;2023-12-20T14:57:47;4.50;;;1.90;;
11111;SDS011;5609;49.466;8.468;2023-12-20T15:00:15;5.13;;;2.10;;